Time;durP1;ratioP1;P1;durP2;ratioP2;P2;SDS_P1;SDS_P2;PMS_P1;PMS_P2;Temp;Humidity;BMP_temperature;BMP_pressure;BME280_temperature;BME280_humidity;BME280_pressure;Samples;Min_cycle;Max_cycle;Signal;HPM_P1;HPM_P2
2023/01/28 00:00:32;;;;;;;;;24.25;19.00;;;;;6.00;66.10;101916.94;6270250;22;47139;-72
2023/01/28 00:02:58;;;;;;;;;25.75;21.75;;;;;6.01;66.23;101913.47;6270146;22;46129;-72
2023/01/28 00:05:23;;;;;;;;;20.75;16.00;;;;;5.97;66.20;101909.25;6269790;22;45619;-73
2023/01/28 00:07:50;;;;;;;;;19.00;16.00;;;;;5.97;66.00;101916.22;6270667;22;45812;-73
2023/01/28 00:10:15;;;;;;;;;19.25;18.00;;;;;5.95;65.95;101908.44;6270039;22;46713;-72
2023/01/28 00:12:41;;;;;;;;;18.25;16.00;;;;;5.99;65.79;101914.41;6270118;22;47107;-73
2023/01/28 00:15:08;;;;;;;;;20.25;19.50;;;;;5.98;66.10;101921.38;6270968;22;45606;-73
2023/01/28 00:17:35;;;;;;;;;23.75;18.75;;;;;5.96;65.58;101914.50;6271400;22;45503;-73
2023/01/28 00:23:22;;;;;;;;;24.75;19.25;;;;;5.95;65.73;101918.00;6270998;22;45576;-74
2023/01/28 00:25:47;;;;;;;;;22.75;19.00;;;;;5.95;66.19;101913.66;6271555;22;45442;-75
2023/01/28 00:28:13;;;;;;;;;22.25;18.75;;;;;5.93;66.03;101907.66;6271432;22;45783;-73
2023/01/28 00:30:38;;;;;;;;;24.50;19.00;;;;;5.92;65.99;101908.56;6272248;22;46381;-72
2023/01/28 00:33:03;;;;;;;;;20.75;19.00;;;;;5.96;66.13;101920.56;6272449;22;45485;-73
2023/01/28 00:35:29;;;;;;;;;23.00;18.75;;;;;5.96;65.73;101935.31;6244099;22;45455;-73
2023/01/28 00:37:54;;;;;;;;;18.75;13.25;;;;;5.97;65.88;101924.00;6271976;22;45540;-72
2023/01/28 00:40:21;;;;;;;;;19.75;15.25;;;;;5.94;65.65;101917.13;6272093;22;45544;-72
2023/01/28 00:42:46;;;;;;;;;28.50;21.00;;;;;5.92;65.61;101924.16;6271273;22;46326;-73
2023/01/28 00:45:11;;;;;;;;;27.00;19.25;;;;;5.95;65.80;101916.25;6244227;22;45907;-73
2023/01/28 00:47:37;;;;;;;;;25.25;16.75;;;;;5.97;65.86;101898.84;6244217;22;45904;-73
2023/01/28 00:53:24;;;;;;;;;22.00;19.00;;;;;5.97;65.31;101908.41;6271817;22;46113;-73
2023/01/28 00:55:51;;;;;;;;;28.00;19.00;;;;;5.99;65.37;101909.22;6272093;22;45465;-72
2023/01/28 00:58:17;;;;;;;;;22.25;17.25;;;;;6.00;65.33;101908.28;6272524;22;45471;-73
2023/01/28 01:00:42;;;;;;;;;24.50;19.00;;;;;5.94;64.93;101901.53;6271604;22;47299;-74
2023/01/28 01:03:07;;;;;;;;;18.00;14.00;;;;;5.99;65.09;101911.81;6271889;22;46037;-73
2023/01/28 01:09:34;;;;;;;;;21.75;17.00;;;;;5.95;64.69;101911.03;6268918;22;45584;-74
2023/01/28 01:11:59;;;;;;;;;21.50;14.00;;;;;5.93;64.80;101918.06;6271170;22;47213;-72
2023/01/28 01:14:33;;;;;;;;;16.25;14.25;;;;;5.88;65.18;101909.56;6271092;22;46908;-74
2023/01/28 01:16:58;;;;;;;;;22.75;18.75;;;;;5.89;64.98;101917.28;6271286;22;45566;-73
2023/01/28 01:19:23;;;;;;;;;21.75;16.25;;;;;5.93;64.71;101932.81;6272028;22;45574;-72
2023/01/28 01:21:49;;;;;;;;;16.00;12.00;;;;;5.86;64.68;101925.16;6272153;22;45860;-74
2023/01/28 01:24:15;;;;;;;;;16.50;15.25;;;;;5.84;64.78;101923.50;6245733;22;45965;-72
2023/01/28 01:26:40;;;;;;;;;17.75;14.00;;;;;5.89;65.14;101939.84;6272554;22;46065;-73
2023/01/28 01:29:09;;;;;;;;;19.50;17.25;;;;;5.74;65.21;101912.53;6244801;22;45598;-72
2023/01/28 01:31:34;;;;;;;;;22.50;20.00;;;;;5.88;64.85;101927.75;6271183;22;45549;-73
2023/01/28 01:34:03;;;;;;;;;20.50;15.50;;;;;5.86;65.11;101934.72;6271080;22;45757;-73
2023/01/28 01:36:29;;;;;;;;;17.50;14.25;;;;;5.83;65.36;101929.63;6244334;22;45778;-73
2023/01/28 01:38:55;;;;;;;;;18.25;15.00;;;;;5.88;65.23;101945.97;6271109;22;45741;-73
2023/01/28 01:41:30;;;;;;;;;15.50;11.25;;;;;5.88;65.25;101941.59;6243473;22;47572;-73
2023/01/28 01:43:59;;;;;;;;;19.25;12.00;;;;;5.82;64.75;101930.50;6270658;22;47195;-73
2023/01/28 01:46:49;;;;;;;;;17.25;14.00;;;;;5.85;65.15;101946.00;6243674;22;45934;-73
2023/01/28 01:49:21;;;;;;;;;18.25;15.50;;;;;5.84;64.72;101945.16;6219131;22;45744;-73
2023/01/28 01:51:50;;;;;;;;;17.75;14.25;;;;;5.82;64.75;101946.09;6270773;22;46589;-73
2023/01/28 01:54:18;;;;;;;;;21.50;18.50;;;;;5.77;64.98;101941.03;6271552;22;46490;-72
2023/01/28 01:56:48;;;;;;;;;15.00;14.00;;;;;5.75;65.08;101931.56;6271214;22;45807;-73
2023/01/28 01:59:20;;;;;;;;;17.25;15.25;;;;;5.68;64.71;101927.44;6271905;22;45626;-73
2023/01/28 02:01:47;;;;;;;;;19.00;14.75;;;;;5.66;64.89;101926.66;6271285;22;46564;-73
2023/01/28 02:04:21;;;;;;;;;15.25;14.25;;;;;5.72;65.06;101940.31;6271344;22;45952;-74
2023/01/28 02:06:47;;;;;;;;;12.75;11.25;;;;;5.72;65.03;101934.28;6270990;22;45577;-73
2023/01/28 02:09:31;;;;;;;;;21.25;16.25;;;;;5.71;65.16;101938.63;6270815;22;45500;-73
2023/01/28 02:12:06;;;;;;;;;21.00;14.75;;;;;5.71;65.05;101941.22;6271565;22;45496;-73
2023/01/28 02:14:36;;;;;;;;;17.50;15.75;;;;;5.72;65.37;101934.28;6270682;22;47021;-73
2023/01/28 02:17:02;;;;;;;;;19.75;15.00;;;;;5.72;65.00;101936.88;6270969;22;45613;-72
2023/01/28 02:19:49;;;;;;;;;28.00;16.75;;;;;5.73;65.09;101939.41;6271533;22;45476;-73
2023/01/28 02:22:36;;;;;;;;;21.75;16.25;;;;;5.74;64.83;101937.66;6271565;22;45566;-74
2023/01/28 02:25:27;;;;;;;;;20.50;18.75;;;;;5.72;65.04;101947.28;6271584;22;46117;-73
2023/01/28 02:28:00;;;;;;;;;19.50;18.75;;;;;5.71;65.21;101935.19;6243733;22;45944;-73
2023/01/28 02:30:32;;;;;;;;;18.50;14.00;;;;;5.69;64.81;101950.81;6243702;22;45546;-73
2023/01/28 02:33:08;;;;;;;;;20.75;17.25;;;;;5.68;64.56;101941.28;6271444;22;46325;-74
2023/01/28 02:35:49;;;;;;;;;22.25;17.75;;;;;5.65;65.10;101948.34;6244433;22;47198;-73
2023/01/28 02:38:44;;;;;;;;;25.75;18.75;;;;;5.61;64.91;101938.94;6271482;22;45773;-73
2023/01/28 02:41:17;;;;;;;;;21.50;14.25;;;;;5.58;65.11;101942.47;6268983;22;45829;-74
2023/01/28 02:43:45;;;;;;;;;21.50;19.00;;;;;5.60;65.06;101945.88;6270796;22;45526;-72
2023/01/28 02:55:42;;;;;;;;;25.25;19.50;;;;;5.62;64.95;101946.66;6270879;22;46046;-73
2023/01/28 02:58:25;;;;;;;;;19.00;18.00;;;;;5.58;64.73;101931.22;6271524;22;46320;-73
2023/01/28 03:01:09;;;;;;;;;17.75;17.25;;;;;5.64;65.19;101931.91;6271412;22;45862;-75
2023/01/28 03:03:47;;;;;;;;;21.75;16.50;;;;;5.64;64.86;101941.44;6270621;22;45816;-73
2023/01/28 03:09:40;;;;;;;;;21.75;12.00;;;;;5.66;65.11;101955.25;6268059;22;46039;-72
2023/01/28 03:38:40;;;;;;;;;22.50;19.25;;;;;5.58;64.51;101967.59;6271221;22;45602;-72
2023/01/28 03:41:08;;;;;;;;;23.00;19.75;;;;;5.59;64.79;101971.91;6243292;22;48377;-73
2023/01/28 03:43:34;;;;;;;;;24.50;18.00;;;;;5.56;64.75;101969.41;6270590;22;48712;-73
2023/01/28 03:45:59;;;;;;;;;25.25;18.25;;;;;5.57;64.99;101966.75;6243297;22;45639;-72
2023/01/28 03:48:27;;;;;;;;;19.50;14.75;;;;;5.56;64.88;101969.41;6271100;22;45539;-72
2023/01/28 03:54:15;;;;;;;;;19.75;17.00;;;;;5.55;64.86;101970.31;6270757;22;46169;-73
2023/01/28 03:56:40;;;;;;;;;24.75;14.25;;;;;5.53;64.56;101980.75;6274382;22;45452;-73
2023/01/28 03:59:06;;;;;;;;;29.25;19.75;;;;;5.52;64.90;101986.81;6278410;22;45492;-73
2023/01/28 04:01:32;;;;;;;;;18.50;15.00;;;;;5.51;65.00;101986.88;6275958;22;47491;-73
2023/01/28 04:03:57;;;;;;;;;18.00;15.75;;;;;5.43;64.68;101958.50;6277762;22;45291;-73
2023/01/28 04:09:44;;;;;;;;;20.75;15.00;;;;;5.45;64.82;101993.09;6278556;22;45678;-73
2023/01/28 04:12:10;;;;;;;;;21.25;19.50;;;;;5.43;64.76;101989.69;6282934;22;45540;-73
2023/01/28 04:14:36;;;;;;;;;18.75;14.50;;;;;5.40;64.98;101985.41;6275442;22;45891;-73
2023/01/28 04:17:01;;;;;;;;;22.25;19.25;;;;;5.40;64.79;101987.16;6272837;22;45618;-74
2023/01/28 04:19:30;;;;;;;;;25.25;20.50;;;;;5.33;64.88;101988.25;6275067;22;45433;-73
2023/01/28 04:25:17;;;;;;;;;17.00;13.75;;;;;5.34;64.95;102000.34;6270704;22;45604;-73
2023/01/28 04:27:44;;;;;;;;;31.00;17.25;;;;;5.31;64.84;101997.81;6268897;22;45608;-73
2023/01/28 04:30:09;;;;;;;;;12.75;10.75;;;;;5.32;64.57;101996.94;6270360;22;45726;-72
2023/01/28 04:32:35;;;;;;;;;22.50;17.00;;;;;5.29;64.82;101997.84;6269940;22;47323;-72
2023/01/28 04:35:00;;;;;;;;;18.00;14.00;;;;;5.34;64.53;101990.81;6269887;22;47248;-73
2023/01/28 04:37:25;;;;;;;;;21.50;12.50;;;;;5.34;64.76;102000.34;6270221;22;45547;-72
2023/01/28 04:39:51;;;;;;;;;24.50;18.00;;;;;5.34;64.93;102016.78;6271070;22;45433;-73
2023/01/28 04:42:16;;;;;;;;;24.50;19.00;;;;;5.34;64.53;102015.94;6269843;22;46441;-73
2023/01/28 04:44:41;;;;;;;;;24.25;16.00;;;;;5.32;65.21;102008.16;6271113;22;45533;-73
2023/01/28 04:47:07;;;;;;;;;18.25;16.25;;;;;5.38;64.73;102014.94;6271127;22;45609;-73
2023/01/28 04:49:33;;;;;;;;;18.75;12.25;;;;;5.36;64.70;102009.78;6270438;22;45899;-73
2023/01/28 04:55:20;;;;;;;;;17.25;15.50;;;;;5.41;65.03;102020.91;6270624;22;46220;-73
2023/01/28 04:57:46;;;;;;;;;18.75;16.75;;;;;5.43;64.43;102031.28;6242793;22;45421;-73
2023/01/28 05:00:12;;;;;;;;;21.00;17.75;;;;;5.43;64.76;102036.47;6270203;22;45765;-73
2023/01/28 05:02:37;;;;;;;;;14.25;13.00;;;;;5.39;64.68;102008.88;6269829;22;45868;-72
2023/01/28 05:05:05;;;;;;;;;23.25;15.75;;;;;5.40;64.87;102006.19;6270604;22;45564;-72
2023/01/28 05:10:52;;;;;;;;;22.50;18.50;;;;;5.47;64.56;102017.28;6264061;22;45530;-72
2023/01/28 05:13:17;;;;;;;;;22.75;18.00;;;;;5.47;64.75;102014.69;6270082;22;46351;-74
2023/01/28 05:15:42;;;;;;;;;21.00;16.25;;;;;5.47;64.53;102022.50;6272430;22;46105;-73
2023/01/28 05:18:08;;;;;;;;;20.75;18.00;;;;;5.48;64.49;102034.59;6243880;22;45618;-73
2023/01/28 05:20:33;;;;;;;;;18.75;16.00;;;;;5.47;64.17;102038.09;6271496;22;45716;-73
2023/01/28 05:22:59;;;;;;;;;17.50;15.25;;;;;5.46;64.76;102025.97;6243917;22;48415;-73
2023/01/28 05:25:24;;;;;;;;;29.75;20.75;;;;;5.44;64.25;102022.59;6271092;22;46066;-73
2023/01/28 05:27:50;;;;;;;;;28.00;24.50;;;;;5.47;64.58;102014.69;6271966;22;45583;-73
2023/01/28 05:30:17;;;;;;;;;19.50;18.75;;;;;5.47;64.64;102015.53;6271770;22;45582;-73
2023/01/28 05:32:42;;;;;;;;;25.00;18.25;;;;;5.45;64.35;102022.53;6271444;22;46429;-74
2023/01/28 05:35:08;;;;;;;;;23.25;18.50;;;;;5.48;64.26;102030.25;6271165;22;46137;-74
2023/01/28 05:40:55;;;;;;;;;20.00;18.50;;;;;5.49;64.39;102033.72;6271683;22;45519;-72
2023/01/28 05:43:20;;;;;;;;;26.00;19.75;;;;;5.48;64.52;102017.25;6270831;22;46313;-72
2023/01/28 05:45:46;;;;;;;;;25.50;19.50;;;;;5.51;63.89;102033.69;6271138;22;46278;-72
2023/01/28 05:48:12;;;;;;;;;22.50;19.75;;;;;5.48;63.94;102032.00;6271752;22;45530;-72
2023/01/28 05:50:37;;;;;;;;;20.25;14.50;;;;;5.44;63.91;102030.38;6271734;22;45596;-73
2023/01/28 05:53:07;;;;;;;;;21.25;18.00;;;;;5.44;64.42;102030.38;6271769;22;46488;-73
2023/01/28 05:55:33;;;;;;;;;21.00;18.00;;;;;5.40;64.06;102027.00;6271847;22;46457;-72
2023/01/28 05:57:58;;;;;;;;;26.50;22.00;;;;;5.36;64.61;102024.53;6271138;22;45700;-73
2023/01/28 06:00:24;;;;;;;;;24.50;18.25;;;;;5.39;64.54;102030.50;6271425;22;45517;-74
2023/01/28 06:02:52;;;;;;;;;21.00;20.25;;;;;5.42;64.31;102039.94;6271113;22;46796;-74
2023/01/28 06:05:19;;;;;;;;;24.25;21.50;;;;;5.43;64.52;102044.25;6271116;22;46977;-74
2023/01/28 06:11:06;;;;;;;;;23.50;19.00;;;;;5.40;64.54;102031.34;6270205;22;45719;-74
2023/01/28 06:13:32;;;;;;;;;23.75;20.00;;;;;5.42;64.21;102039.94;6271635;22;46424;-72
2023/01/28 06:15:57;;;;;;;;;21.00;17.75;;;;;5.44;64.41;102039.03;6270891;22;47092;-73
2023/01/28 06:18:22;;;;;;;;;21.75;19.75;;;;;5.41;64.29;102052.09;6271817;22;45660;-73
2023/01/28 06:20:49;;;;;;;;;22.50;18.00;;;;;5.39;64.46;102053.91;6271859;22;45554;-73
2023/01/28 06:23:15;;;;;;;;;25.25;23.25;;;;;5.42;64.69;102051.19;6270862;22;47317;-72
2023/01/28 06:25:40;;;;;;;;;23.50;18.25;;;;;5.39;64.42;102051.28;6271070;22;45573;-73
2023/01/28 06:28:06;;;;;;;;;21.75;20.50;;;;;5.40;64.15;102052.97;6243456;22;45502;-73
2023/01/28 06:30:31;;;;;;;;;27.00;22.25;;;;;5.39;64.54;102053.91;6270932;22;45448;-72
2023/01/28 06:32:57;;;;;;;;;15.00;12.00;;;;;5.36;64.22;102053.09;6243409;22;47282;-73
2023/01/28 06:35:22;;;;;;;;;22.50;19.50;;;;;5.38;64.59;102059.13;6270722;22;45631;-73
2023/01/28 06:41:09;;;;;;;;;19.25;14.75;;;;;5.34;64.48;102062.72;6271618;22;45605;-73
2023/01/28 06:43:34;;;;;;;;;25.00;19.75;;;;;5.33;64.58;102068.78;6271142;22;45488;-72
2023/01/28 06:46:00;;;;;;;;;25.00;18.00;;;;;5.34;64.46;102073.94;6271411;22;45569;-71
2023/01/28 06:48:26;;;;;;;;;27.00;21.75;;;;;5.36;64.48;102086.88;6270690;22;45590;-72
2023/01/28 06:50:52;;;;;;;;;24.25;21.75;;;;;5.35;64.39;102080.84;6271534;22;45793;-72
2023/01/28 06:56:39;;;;;;;;;28.00;20.50;;;;;5.37;64.67;102078.19;6271500;22;45970;-73
2023/01/28 06:59:05;;;;;;;;;27.25;21.75;;;;;5.41;64.83;102085.00;6271353;22;45531;-72
2023/01/28 07:01:30;;;;;;;;;25.50;21.50;;;;;5.40;64.71;102093.69;6272043;22;45663;-74
2023/01/28 07:03:56;;;;;;;;;15.00;8.25;;;;;5.38;64.36;102091.16;6270407;22;46380;-72
2023/01/28 07:06:22;;;;;;;;;25.25;18.25;;;;;5.37;64.38;102091.19;6271274;22;45366;-73
2023/01/28 07:08:47;;;;;;;;;25.25;21.50;;;;;5.37;64.22;102097.25;6270589;22;45591;-73
2023/01/28 07:11:13;;;;;;;;;31.75;23.00;;;;;5.37;63.97;102097.25;6269292;22;45868;-73
2023/01/28 07:13:39;;;;;;;;;21.25;20.50;;;;;5.36;64.34;102092.06;6270961;22;46725;-72
2023/01/28 07:16:05;;;;;;;;;25.50;19.75;;;;;5.37;64.16;102099.00;6271662;22;46066;-72
2023/01/28 07:18:30;;;;;;;;;26.50;20.50;;;;;5.30;64.16;102092.22;6271612;22;45554;-74
2023/01/28 07:20:56;;;;;;;;;24.75;16.50;;;;;5.29;64.37;102087.97;6272101;22;45535;-74
2023/01/28 07:26:43;;;;;;;;;22.75;18.00;;;;;5.31;63.66;102089.59;6271672;22;45750;-73
2023/01/28 07:29:08;;;;;;;;;25.25;21.25;;;;;5.28;63.71;102097.50;6271367;22;45546;-74
2023/01/28 07:31:33;;;;;;;;;21.50;18.00;;;;;5.32;64.07;102100.84;6271056;22;45568;-73
2023/01/28 07:33:59;;;;;;;;;27.25;21.00;;;;;5.34;63.50;102093.88;6270077;22;46753;-73
2023/01/28 07:36:24;;;;;;;;;21.75;19.25;;;;;5.29;63.88;102100.94;6269807;22;46905;-74
2023/01/28 07:38:49;;;;;;;;;15.50;15.50;;;;;5.23;63.99;102098.50;6271323;22;45614;-74
2023/01/28 07:41:15;;;;;;;;;21.00;18.00;;;;;5.34;64.10;102106.88;6243369;22;45597;-74
2023/01/28 07:43:40;;;;;;;;;24.25;16.50;;;;;5.35;63.85;102111.16;6270284;22;46564;-74
2023/01/28 07:46:05;;;;;;;;;19.25;14.25;;;;;5.37;63.51;102104.19;6270535;22;46106;-73
2023/01/28 07:48:34;;;;;;;;;17.25;14.75;;;;;5.39;63.40;102107.63;6270352;22;45569;-74
2023/01/28 07:51:00;;;;;;;;;19.50;17.50;;;;;5.40;63.54;102110.16;6271409;22;45532;-73
2023/01/28 07:56:47;;;;;;;;;20.00;18.00;;;;;5.38;63.60;102109.34;6270741;22;45671;-73
2023/01/28 07:59:12;;;;;;;;;25.75;21.25;;;;;5.37;63.33;102111.97;6243973;22;45535;-73
2023/01/28 08:01:38;;;;;;;;;23.00;15.75;;;;;5.40;63.03;102115.34;6271355;22;45589;-73
2023/01/28 08:04:03;;;;;;;;;23.25;19.25;;;;;5.40;63.40;102117.09;6270031;22;46075;-73
2023/01/28 08:06:29;;;;;;;;;18.25;18.00;;;;;5.42;63.69;102120.50;6217579;22;46121;-73
2023/01/28 08:12:15;;;;;;;;;24.75;17.50;;;;;5.46;63.44;102116.94;6266102;22;45735;-74
2023/01/28 08:14:41;;;;;;;;;21.00;15.50;;;;;5.48;63.33;102117.75;6270290;22;46282;-73
2023/01/28 08:17:06;;;;;;;;;26.75;19.75;;;;;5.54;63.65;102116.75;6271302;22;45734;-72
2023/01/28 08:19:31;;;;;;;;;25.25;23.00;;;;;5.57;63.50;102127.91;6270468;22;45510;-73
2023/01/28 08:21:57;;;;;;;;;21.25;18.50;;;;;5.58;63.41;102126.16;6271027;22;45617;-72
2023/01/28 08:24:22;;;;;;;;;28.00;19.25;;;;;5.58;63.11;102132.22;6270618;22;47197;-73
2023/01/28 08:26:48;;;;;;;;;24.75;19.75;;;;;5.63;63.29;102139.91;6270844;22;45755;-73
2023/01/28 08:29:14;;;;;;;;;29.00;17.75;;;;;5.66;63.02;102132.88;6270001;22;45568;-74
2023/01/28 08:31:39;;;;;;;;;19.00;16.25;;;;;5.69;62.85;102129.34;6271292;22;45464;-74
2023/01/28 08:34:05;;;;;;;;;16.00;14.25;;;;;5.73;62.13;102134.41;6269903;22;47263;-74
2023/01/28 08:36:30;;;;;;;;;23.00;15.75;;;;;5.72;62.52;102135.31;6270475;22;46723;-74
2023/01/28 08:42:17;;;;;;;;;23.00;17.75;;;;;5.76;61.65;102143.91;6270703;22;45616;-73
2023/01/28 08:44:44;;;;;;;;;21.75;18.00;;;;;5.75;61.06;102152.59;6270127;22;47752;-72
2023/01/28 08:47:10;;;;;;;;;9.25;8.00;;;;;5.75;61.14;102148.25;6270227;22;46917;-74
2023/01/28 08:49:35;;;;;;;;;25.25;14.25;;;;;5.74;60.91;102158.66;6270901;22;45678;-73
2023/01/28 08:52:00;;;;;;;;;12.75;12.25;;;;;5.74;60.98;102153.47;6271777;22;45737;-73
2023/01/28 08:54:26;;;;;;;;;19.50;16.25;;;;;5.69;61.29;102147.53;6271883;22;45467;-73
2023/01/28 08:56:51;;;;;;;;;17.75;14.50;;;;;5.75;60.87;102158.63;6271222;22;46853;-74
2023/01/28 08:59:17;;;;;;;;;21.50;16.50;;;;;5.75;61.07;102165.59;6271804;22;45635;-73
2023/01/28 09:01:42;;;;;;;;;18.00;15.75;;;;;5.74;60.74;102164.72;6272244;22;45747;-73
2023/01/28 09:04:07;;;;;;;;;16.00;14.00;;;;;5.73;60.63;102160.41;6271744;22;45471;-73
2023/01/28 09:06:33;;;;;;;;;17.75;14.75;;;;;5.74;60.77;102172.53;6272396;22;45524;-73
2023/01/28 09:12:20;;;;;;;;;20.50;15.00;;;;;5.66;60.88;102164.09;6273658;22;45625;-74
2023/01/28 09:14:45;;;;;;;;;25.50;19.75;;;;;5.71;61.02;102170.03;6272895;22;46507;-73
2023/01/28 09:17:10;;;;;;;;;22.75;16.25;;;;;5.73;60.89;102186.41;6272074;22;47151;-73
2023/01/28 09:19:35;;;;;;;;;18.00;11.50;;;;;5.73;60.58;102190.75;6271844;22;45542;-73
2023/01/28 09:22:03;;;;;;;;;15.75;12.25;;;;;5.67;60.57;102170.97;6272519;22;45562;-74
2023/01/28 09:27:49;;;;;;;;;8.00;4.00;;;;;5.72;60.56;102176.06;6271864;22;45727;-73
2023/01/28 09:30:15;;;;;;;;;17.75;16.25;;;;;5.71;60.78;102176.97;6272135;22;45460;-72
2023/01/28 09:32:41;;;;;;;;;19.25;18.25;;;;;5.71;61.11;102176.97;6271536;22;45322;-74
2023/01/28 09:35:07;;;;;;;;;18.75;14.00;;;;;5.78;60.64;102187.16;6271610;22;45811;-73
2023/01/28 09:37:32;;;;;;;;;17.25;13.25;;;;;5.79;60.85;102191.47;6271030;22;47150;-75
2023/01/28 09:39:57;;;;;;;;;15.75;14.25;;;;;5.84;60.97;102200.00;6269783;22;45569;-74
2023/01/28 09:42:51;;;;;;;;;22.25;19.00;;;;;5.86;60.73;102207.78;6271173;22;45737;-74
2023/01/28 09:45:20;;;;;;;;;13.75;8.50;;;;;5.86;59.85;102194.75;6227117;22;48529;-73
2023/01/28 09:47:50;;;;;;;;;18.50;13.75;;;;;5.72;60.03;102169.09;6270986;22;47398;-73
2023/01/28 09:50:35;;;;;;;;;15.75;15.00;;;;;5.84;59.61;102201.75;6271784;22;45437;-73
2023/01/28 09:53:09;;;;;;;;;18.00;15.00;;;;;5.81;60.20;102205.28;6271026;22;45564;-73
2023/01/28 09:55:39;;;;;;;;;17.75;14.75;;;;;5.76;59.96;102206.31;6271056;22;45523;-73
2023/01/28 09:58:10;;;;;;;;;14.00;11.00;;;;;5.65;59.95;102183.19;6270957;22;47067;-73
2023/01/28 10:00:52;;;;;;;;;21.25;16.25;;;;;5.75;59.93;102202.84;6271015;22;45838;-73
2023/01/28 10:03:44;;;;;;;;;14.25;10.50;;;;;5.75;59.92;102205.44;6243715;22;45732;-74
2023/01/28 10:06:21;;;;;;;;;26.75;20.25;;;;;5.76;60.07;102212.34;6271252;22;46739;-75
2023/01/28 10:09:13;;;;;;;;;15.25;13.00;;;;;5.76;59.46;102198.50;6271157;22;46540;-73
2023/01/28 10:11:50;;;;;;;;;19.75;17.25;;;;;5.74;59.42;102208.94;6270160;22;45860;-73
2023/01/28 10:14:52;;;;;;;;;22.75;15.25;;;;;5.74;59.67;102202.88;6269699;22;45737;-74
2023/01/28 10:17:31;;;;;;;;;26.50;17.00;;;;;5.72;59.98;102208.09;6269547;22;46384;-72
2023/01/28 10:20:15;;;;;;;;;18.50;18.50;;;;;5.68;59.62;102206.47;6241887;22;48529;-74
2023/01/28 10:26:13;;;;;;;;;20.00;15.25;;;;;5.64;60.00;102197.06;6270206;22;45632;-74
2023/01/28 10:28:38;;;;;;;;;12.75;10.00;;;;;5.70;59.58;102222.91;6269861;22;46677;-73
2023/01/28 10:31:12;;;;;;;;;16.50;12.00;;;;;5.62;59.88;102208.38;6270115;22;45543;-73
2023/01/28 10:33:38;;;;;;;;;25.00;16.75;;;;;5.64;59.77;102215.25;6269759;22;45855;-73
2023/01/28 10:36:05;;;;;;;;;15.50;11.00;;;;;5.69;59.97;102223.78;6270382;22;45728;-73
2023/01/28 10:41:53;;;;;;;;;16.00;13.50;;;;;5.68;59.68;102224.69;6269579;22;45588;-73
2023/01/28 10:44:33;;;;;;;;;19.00;17.00;;;;;5.66;59.83;102233.44;6269045;22;45577;-73
2023/01/28 10:47:03;;;;;;;;;19.00;17.50;;;;;5.62;60.01;102222.22;6270418;22;45678;-73
2023/01/28 10:49:30;;;;;;;;;23.25;18.25;;;;;5.57;60.07;102223.22;6268840;22;46550;-74
2023/01/28 10:51:56;;;;;;;;;19.50;18.75;;;;;5.58;59.56;102230.16;6268962;22;46044;-74
2023/01/28 10:57:43;;;;;;;;;22.50;17.00;;;;;5.58;60.09;102236.19;6270032;22;45512;-73
2023/01/28 11:00:22;;;;;;;;;12.25;11.25;;;;;5.59;60.12;102231.84;6243121;22;46422;-73
2023/01/28 11:02:48;;;;;;;;;18.75;15.00;;;;;5.59;60.45;102247.47;6241818;22;46184;-73
2023/01/28 11:05:24;;;;;;;;;18.25;15.50;;;;;5.55;60.30;102222.44;6270578;22;45837;-74
2023/01/28 11:14:19;;;;;;;;;29.25;16.50;;;;;5.57;60.12;102220.63;6266487;22;46037;-73
2023/01/28 11:16:45;;;;;;;;;19.25;17.00;;;;;5.58;60.54;102231.00;6242314;22;45845;-73
2023/01/28 11:19:10;;;;;;;;;21.50;18.50;;;;;5.57;60.34;102234.50;6269927;22;45775;-75
2023/01/28 11:21:38;;;;;;;;;22.75;19.00;;;;;5.58;60.33;102223.19;6269805;22;46500;-73
2023/01/28 11:24:13;;;;;;;;;17.50;16.25;;;;;5.59;60.49;102219.72;6270025;22;45970;-73
2023/01/28 11:26:48;;;;;;;;;16.75;10.75;;;;;5.60;60.38;102218.84;6269412;22;45868;-73
2023/01/28 11:29:23;;;;;;;;;18.00;15.00;;;;;5.62;60.40;102213.56;6269946;22;45513;-74
2023/01/28 11:31:51;;;;;;;;;18.00;14.75;;;;;5.62;60.65;102210.97;6269499;22;46280;-72
2023/01/28 11:34:18;;;;;;;;;21.75;16.75;;;;;5.62;59.89;102211.84;6269692;22;45789;-73
2023/01/28 11:36:59;;;;;;;;;19.25;15.00;;;;;5.61;60.23;102222.28;6270191;22;45787;-73
2023/01/28 11:39:27;;;;;;;;;19.75;17.00;;;;;5.63;60.14;102213.53;6269172;22;45559;-73
2023/01/28 11:41:53;;;;;;;;;17.00;17.00;;;;;5.57;60.21;102210.22;6269466;22;46388;-74
2023/01/28 11:44:18;;;;;;;;;21.50;12.50;;;;;5.59;60.34;102206.72;6270471;22;46006;-72
2023/01/28 11:46:54;;;;;;;;;15.50;13.50;;;;;5.55;59.92;102196.44;6269853;22;45672;-72
2023/01/28 11:49:44;;;;;;;;;18.50;15.75;;;;;5.55;60.48;102202.50;6269376;22;45547;-73
2023/01/28 11:52:40;;;;;;;;;25.25;19.50;;;;;5.57;60.08;102200.69;6269130;22;46247;-74
2023/01/28 11:55:27;;;;;;;;;23.00;18.00;;;;;5.58;60.10;102205.00;6269313;22;46532;-73
2023/01/28 11:58:06;;;;;;;;;23.25;17.50;;;;;5.60;60.10;102210.19;6242927;22;45989;-72
2023/01/28 12:00:34;;;;;;;;;21.50;18.25;;;;;5.62;59.96;102196.22;6271286;22;45836;-72
2023/01/28 12:03:40;;;;;;;;;22.50;21.50;;;;;5.61;60.18;102212.75;6274290;22;47603;-74
2023/01/28 12:06:35;;;;;;;;;18.75;14.75;;;;;5.64;60.17;102186.66;6274536;22;46054;-72
2023/01/28 12:13:14;;;;;;;;;20.75;16.75;;;;;5.71;59.62;102208.16;6146023;23;45569;-74
2023/01/28 12:16:15;;;;;;;;;21.25;17.50;;;;;5.70;59.32;102196.91;5998155;23;45627;-73
2023/01/28 12:18:44;;;;;;;;;18.25;12.00;;;;;5.69;59.11;102190.00;5942264;23;47482;-72
2023/01/28 12:21:24;;;;;;;;;19.50;16.75;;;;;5.68;59.64;102198.69;5999382;23;45845;-72
2023/01/28 12:23:58;;;;;;;;;23.00;19.25;;;;;5.70;59.36;102194.31;5999136;23;45792;-72
2023/01/28 12:26:48;;;;;;;;;21.50;19.00;;;;;5.72;59.69;102189.06;5998356;23;46341;-73
2023/01/28 12:29:25;;;;;;;;;24.50;18.25;;;;;5.70;59.32;102189.09;5999177;23;46078;-73
2023/01/28 12:32:13;;;;;;;;;21.00;18.25;;;;;5.72;59.56;102192.50;5974390;23;45608;-73
2023/01/28 12:34:51;;;;;;;;;22.00;20.25;;;;;5.74;59.06;102187.28;5999411;23;45945;-72
2023/01/28 12:37:47;;;;;;;;;21.00;18.25;;;;;5.73;59.05;102175.16;5999026;23;45829;-74
2023/01/28 12:40:18;;;;;;;;;21.00;9.25;;;;;5.75;59.21;102184.66;5998181;23;46056;-73
2023/01/28 12:42:44;;;;;;;;;12.50;9.50;;;;;5.76;58.72;102198.50;5997942;23;45776;-75
2023/01/28 12:45:45;;;;;;;;;23.67;21.00;;;;;5.73;58.80;102180.34;6002515;23;45535;-73
2023/01/28 12:48:18;;;;;;;;;21.25;15.00;;;;;5.71;59.24;102184.75;6027710;23;46224;-73
2023/01/28 12:50:57;;;;;;;;;22.00;17.50;;;;;5.72;58.99;102187.31;6028034;23;46233;-73
2023/01/28 12:56:37;;;;;;;;;13.50;10.00;;;;;5.68;58.57;102177.88;6269547;22;45722;-74
2023/01/28 12:59:17;;;;;;;;;24.00;19.00;;;;;5.70;58.70;102165.72;6269690;22;46409;-73
2023/01/28 13:01:53;;;;;;;;;23.25;17.75;;;;;5.78;57.93;102179.34;6269806;22;46206;-72
2023/01/28 13:04:33;;;;;;;;;22.75;18.00;;;;;5.78;57.82;102192.34;6268597;22;45524;-73
2023/01/28 13:07:22;;;;;;;;;26.50;18.75;;;;;5.79;57.90;102182.81;6269175;22;45636;-73
2023/01/28 13:13:18;;;;;;;;;19.50;17.50;;;;;5.76;57.38;102191.56;6203580;22;46086;-73
2023/01/28 13:15:45;;;;;;;;;23.00;18.25;;;;;5.73;57.55;102169.97;6205012;22;45557;-75
2023/01/28 13:18:29;;;;;;;;;22.50;13.00;;;;;5.73;57.26;102183.81;6205227;22;45871;-74
2023/01/28 13:20:54;;;;;;;;;22.50;16.00;;;;;5.69;57.35;102176.13;6205119;22;45806;-72
2023/01/28 13:23:39;;;;;;;;;26.25;21.25;;;;;5.66;57.27;102176.22;6203961;22;45630;-73
2023/01/28 13:29:31;;;;;;;;;22.00;19.25;;;;;5.64;56.91;102176.25;6204656;22;45971;-73
2023/01/28 13:32:01;;;;;;;;;21.75;12.75;;;;;5.61;56.70;102196.28;6204306;22;46598;-73
2023/01/28 13:34:34;;;;;;;;;21.75;18.00;;;;;5.62;57.12;102185.84;6204752;22;45967;-73
2023/01/28 13:37:06;;;;;;;;;22.00;17.50;;;;;5.60;57.03;102187.63;6206125;22;45926;-73
2023/01/28 13:39:34;;;;;;;;;21.00;18.00;;;;;5.60;57.40;102179.84;6205675;22;45697;-73